createdAt,value
2022-10-24T00:12:31.501Z,1006.95
2022-10-24T00:27:34.805Z,1007.72
2022-10-24T00:42:36.069Z,1007.61
2022-10-24T00:57:37.423Z,1007.85
2022-10-24T01:12:38.789Z,1007.72
2022-10-24T01:27:40.655Z,1007.30
2022-10-24T01:42:41.998Z,1007.37
2022-10-24T01:57:43.367Z,1007.35
2022-10-24T02:12:43.239Z,1007.20
2022-10-24T02:27:45.634Z,1006.85
2022-10-24T02:42:47.748Z,1006.72
2022-10-24T02:57:49.635Z,1006.98
2022-10-24T03:12:50.490Z,1006.87
2022-10-24T03:27:52.373Z,1006.82
2022-10-24T03:42:53.801Z,1006.94
2022-10-24T03:57:56.659Z,1006.87
2022-10-24T04:12:57.050Z,1006.89
2022-10-24T04:27:58.441Z,1006.61
2022-10-24T04:42:59.767Z,1006.65
2022-10-24T04:58:01.235Z,1006.79
2022-10-24T05:13:01.768Z,1006.91
2022-10-24T05:28:03.175Z,1006.75
2022-10-24T05:43:05.048Z,1006.97
2022-10-24T05:58:05.819Z,1006.90
2022-10-24T06:13:06.732Z,1006.53
2022-10-24T06:43:09.260Z,1006.52
2022-10-24T06:58:10.187Z,1006.79
2022-10-24T07:13:11.506Z,1006.95
2022-10-24T07:28:12.139Z,1007.14
2022-10-24T07:43:12.758Z,1007.37
2022-10-24T07:58:14.641Z,1007.18
2022-10-24T08:16:11.068Z,1007.09
2022-10-24T08:31:13.674Z,1007.03
2022-10-24T08:46:13.821Z,1007.08
2022-10-24T09:01:14.070Z,1007.01
2022-10-24T09:16:14.032Z,1006.95
2022-10-24T09:31:14.150Z,1006.95
2022-10-24T09:46:14.211Z,1007.15
2022-10-24T10:01:14.417Z,1006.83
2022-10-24T10:16:16.031Z,1006.84
2022-10-24T10:31:16.545Z,1006.81
2022-10-24T10:46:17.617Z,1006.74
2022-10-24T11:01:18.165Z,1006.62
2022-10-24T11:16:18.104Z,1006.57
2022-10-24T11:31:18.712Z,1006.46
2022-10-24T11:46:18.287Z,1006.71
2022-10-24T12:01:18.896Z,1006.53
2022-10-24T12:16:19.965Z,1006.27
2022-10-24T12:31:22.369Z,1006.33
2022-10-24T12:46:25.184Z,1006.21
2022-10-24T13:01:25.395Z,1006.03
2022-10-24T13:16:25.400Z,1006.06
2022-10-24T13:31:25.465Z,1006.05
2022-10-24T13:46:25.587Z,1006.22
2022-10-24T14:01:26.262Z,1006.32
2022-10-24T14:16:26.272Z,1006.44
2022-10-24T14:31:26.379Z,1006.52
2022-10-24T14:46:26.506Z,1006.52
2022-10-24T15:01:26.619Z,1006.43
2022-10-24T15:16:26.693Z,1006.43
2022-10-24T15:31:26.766Z,1006.50
2022-10-24T15:46:27.377Z,1006.42
2022-10-24T16:01:27.127Z,1006.57
2022-10-24T16:16:27.170Z,1006.66
2022-10-24T16:31:27.149Z,1006.84
2022-10-24T16:46:27.772Z,1007.00
2022-10-24T17:01:28.077Z,1007.09
2022-10-24T17:16:28.042Z,1007.16
2022-10-24T17:31:28.575Z,1007.06
2022-10-24T17:46:28.681Z,1007.13
2022-10-24T18:01:28.906Z,1007.20
2022-10-24T18:16:30.705Z,1007.26
2022-10-24T18:31:32.809Z,1007.46
2022-10-24T18:46:32.908Z,1007.47
2022-10-24T19:01:33.123Z,1007.47
2022-10-24T19:16:33.593Z,1007.51
2022-10-24T19:31:33.213Z,1007.52
2022-10-24T19:46:34.319Z,1007.55
2022-10-24T20:01:34.594Z,1007.61
2022-10-24T20:16:36.004Z,1007.80
2022-10-24T20:31:36.122Z,1007.86
2022-10-24T20:46:36.201Z,1007.96
2022-10-24T21:01:36.889Z,1008.06
2022-10-24T21:16:36.942Z,1008.30
2022-10-24T21:31:37.551Z,1008.28
2022-10-24T21:46:38.117Z,1008.35
2022-10-24T22:01:38.992Z,1008.43
2022-10-24T22:16:38.845Z,1008.58
2022-10-24T22:31:39.143Z,1008.63
2022-10-24T22:46:39.536Z,1008.74
2022-10-24T23:01:40.445Z,1008.85
2022-10-24T23:16:40.940Z,1009.03
2022-10-24T23:31:40.866Z,1009.00
2022-10-24T23:46:41.505Z,1008.97
